sensor_id;sensor_type;location;lat;lon;timestamp;P1;durP1;ratioP1;P2;durP2;ratioP2
45434;SDS011;31183;47.404;8.500;2023-04-25T00:02:13;7.20;;;3.90;;
45434;SDS011;31183;47.404;8.500;2023-04-25T00:04:41;5.93;;;3.40;;
45434;SDS011;31183;47.404;8.500;2023-04-25T00:07:08;8.50;;;2.88;;
45434;SDS011;31183;47.404;8.500;2023-04-25T00:09:35;6.43;;;4.13;;
45434;SDS011;31183;47.404;8.500;2023-04-25T00:12:01;5.78;;;3.65;;
45434;SDS011;31183;47.404;8.500;2023-04-25T00:14:29;8.27;;;4.53;;
45434;SDS011;31183;47.404;8.500;2023-04-25T00:16:56;7.90;;;4.25;;
45434;SDS011;31183;47.404;8.500;2023-04-25T00:19:23;7.47;;;3.95;;
45434;SDS011;31183;47.404;8.500;2023-04-25T00:21:50;9.85;;;4.45;;
45434;SDS011;31183;47.404;8.500;2023-04-25T00:24:17;6.00;;;3.65;;
45434;SDS011;31183;47.404;8.500;2023-04-25T00:26:43;5.82;;;4.30;;
45434;SDS011;31183;47.404;8.500;2023-04-25T00:29:10;6.95;;;4.25;;
45434;SDS011;31183;47.404;8.500;2023-04-25T00:31:37;6.53;;;3.33;;
45434;SDS011;31183;47.404;8.500;2023-04-25T00:34:03;8.32;;;3.78;;
45434;SDS011;31183;47.404;8.500;2023-04-25T00:36:30;5.13;;;3.08;;
45434;SDS011;31183;47.404;8.500;2023-04-25T00:38:57;9.00;;;4.53;;
45434;SDS011;31183;47.404;8.500;2023-04-25T00:41:25;6.95;;;4.38;;
45434;SDS011;31183;47.404;8.500;2023-04-25T00:43:53;4.90;;;3.53;;
45434;SDS011;31183;47.404;8.500;2023-04-25T00:46:21;6.95;;;3.67;;
45434;SDS011;31183;47.404;8.500;2023-04-25T00:48:48;5.70;;;3.17;;
45434;SDS011;31183;47.404;8.500;2023-04-25T00:51:16;6.03;;;4.03;;
45434;SDS011;31183;47.404;8.500;2023-04-25T00:53:45;7.45;;;3.50;;
45434;SDS011;31183;47.404;8.500;2023-04-25T00:56:14;5.13;;;4.03;;
45434;SDS011;31183;47.404;8.500;2023-04-25T00:58:41;6.70;;;3.70;;
45434;SDS011;31183;47.404;8.500;2023-04-25T01:01:08;11.65;;;3.53;;
45434;SDS011;31183;47.404;8.500;2023-04-25T01:03:37;8.13;;;3.15;;
45434;SDS011;31183;47.404;8.500;2023-04-25T01:06:08;8.77;;;3.33;;
45434;SDS011;31183;47.404;8.500;2023-04-25T01:08:37;4.20;;;3.25;;
45434;SDS011;31183;47.404;8.500;2023-04-25T01:11:05;4.82;;;3.15;;
45434;SDS011;31183;47.404;8.500;2023-04-25T01:13:32;9.77;;;3.40;;
45434;SDS011;31183;47.404;8.500;2023-04-25T01:16:00;6.15;;;3.38;;
45434;SDS011;31183;47.404;8.500;2023-04-25T01:18:27;8.63;;;3.28;;
45434;SDS011;31183;47.404;8.500;2023-04-25T01:20:54;6.78;;;3.50;;
45434;SDS011;31183;47.404;8.500;2023-04-25T01:23:21;6.82;;;3.45;;
45434;SDS011;31183;47.404;8.500;2023-04-25T01:25:49;5.03;;;3.95;;
45434;SDS011;31183;47.404;8.500;2023-04-25T01:28:16;6.65;;;3.33;;
45434;SDS011;31183;47.404;8.500;2023-04-25T01:30:43;6.38;;;3.50;;
45434;SDS011;31183;47.404;8.500;2023-04-25T01:33:09;7.82;;;4.07;;
45434;SDS011;31183;47.404;8.500;2023-04-25T01:35:37;9.15;;;3.30;;
45434;SDS011;31183;47.404;8.500;2023-04-25T01:38:03;5.05;;;3.63;;
45434;SDS011;31183;47.404;8.500;2023-04-25T01:40:30;8.75;;;4.47;;
45434;SDS011;31183;47.404;8.500;2023-04-25T01:42:58;5.10;;;3.58;;
45434;SDS011;31183;47.404;8.500;2023-04-25T01:45:26;6.03;;;3.90;;
45434;SDS011;31183;47.404;8.500;2023-04-25T01:47:52;10.25;;;3.50;;
45434;SDS011;31183;47.404;8.500;2023-04-25T01:50:19;8.07;;;3.75;;
45434;SDS011;31183;47.404;8.500;2023-04-25T01:52:46;8.88;;;4.47;;
45434;SDS011;31183;47.404;8.500;2023-04-25T01:55:13;7.18;;;3.92;;
45434;SDS011;31183;47.404;8.500;2023-04-25T01:57:39;6.03;;;3.70;;
45434;SDS011;31183;47.404;8.500;2023-04-25T02:00:06;8.15;;;4.25;;
45434;SDS011;31183;47.404;8.500;2023-04-25T02:02:35;7.70;;;4.05;;
45434;SDS011;31183;47.404;8.500;2023-04-25T02:05:01;5.35;;;3.63;;
45434;SDS011;31183;47.404;8.500;2023-04-25T02:07:28;7.43;;;3.42;;
45434;SDS011;31183;47.404;8.500;2023-04-25T02:09:55;12.55;;;4.03;;
45434;SDS011;31183;47.404;8.500;2023-04-25T02:12:22;9.73;;;3.85;;
45434;SDS011;31183;47.404;8.500;2023-04-25T02:14:49;9.52;;;3.70;;
45434;SDS011;31183;47.404;8.500;2023-04-25T02:17:16;6.05;;;3.72;;
45434;SDS011;31183;47.404;8.500;2023-04-25T02:19:42;8.63;;;4.13;;
45434;SDS011;31183;47.404;8.500;2023-04-25T02:22:09;4.97;;;3.55;;
45434;SDS011;31183;47.404;8.500;2023-04-25T02:24:36;5.78;;;3.65;;
45434;SDS011;31183;47.404;8.500;2023-04-25T02:27:03;9.13;;;4.25;;
45434;SDS011;31183;47.404;8.500;2023-04-25T02:29:29;8.60;;;3.38;;
45434;SDS011;31183;47.404;8.500;2023-04-25T02:31:56;10.35;;;4.13;;
45434;SDS011;31183;47.404;8.500;2023-04-25T02:34:23;6.57;;;3.63;;
45434;SDS011;31183;47.404;8.500;2023-04-25T02:36:49;13.20;;;4.55;;
45434;SDS011;31183;47.404;8.500;2023-04-25T02:39:19;6.47;;;4.30;;
45434;SDS011;31183;47.404;8.500;2023-04-25T02:41:45;6.70;;;3.88;;
45434;SDS011;31183;47.404;8.500;2023-04-25T02:44:12;5.32;;;3.55;;
45434;SDS011;31183;47.404;8.500;2023-04-25T02:46:38;5.25;;;3.28;;
45434;SDS011;31183;47.404;8.500;2023-04-25T02:49:05;8.43;;;4.18;;
45434;SDS011;31183;47.404;8.500;2023-04-25T02:51:32;8.75;;;4.60;;
45434;SDS011;31183;47.404;8.500;2023-04-25T02:53:59;8.50;;;4.57;;
45434;SDS011;31183;47.404;8.500;2023-04-25T02:56:25;9.65;;;4.93;;
45434;SDS011;31183;47.404;8.500;2023-04-25T02:58:53;9.63;;;4.43;;
45434;SDS011;31183;47.404;8.500;2023-04-25T03:01:20;9.57;;;4.22;;
45434;SDS011;31183;47.404;8.500;2023-04-25T03:03:46;9.00;;;4.15;;
45434;SDS011;31183;47.404;8.500;2023-04-25T03:06:13;7.22;;;4.55;;
45434;SDS011;31183;47.404;8.500;2023-04-25T03:08:41;8.75;;;3.88;;
45434;SDS011;31183;47.404;8.500;2023-04-25T03:11:08;7.63;;;3.80;;
45434;SDS011;31183;47.404;8.500;2023-04-25T03:13:35;8.70;;;3.97;;
45434;SDS011;31183;47.404;8.500;2023-04-25T03:16:02;6.22;;;4.13;;
45434;SDS011;31183;47.404;8.500;2023-04-25T03:18:29;9.00;;;5.57;;
45434;SDS011;31183;47.404;8.500;2023-04-25T03:20:55;6.85;;;4.93;;
45434;SDS011;31183;47.404;8.500;2023-04-25T03:23:22;6.10;;;3.78;;
45434;SDS011;31183;47.404;8.500;2023-04-25T03:25:48;5.13;;;3.88;;
45434;SDS011;31183;47.404;8.500;2023-04-25T03:28:15;8.43;;;4.28;;
45434;SDS011;31183;47.404;8.500;2023-04-25T03:30:41;10.90;;;4.78;;
45434;SDS011;31183;47.404;8.500;2023-04-25T03:33:08;12.30;;;4.20;;
45434;SDS011;31183;47.404;8.500;2023-04-25T03:35:35;9.85;;;4.15;;
45434;SDS011;31183;47.404;8.500;2023-04-25T03:38:01;8.57;;;4.63;;
45434;SDS011;31183;47.404;8.500;2023-04-25T03:40:28;5.88;;;4.38;;
45434;SDS011;31183;47.404;8.500;2023-04-25T03:42:54;9.13;;;4.07;;
45434;SDS011;31183;47.404;8.500;2023-04-25T03:45:21;8.20;;;4.82;;
45434;SDS011;31183;47.404;8.500;2023-04-25T03:47:48;10.73;;;4.18;;
45434;SDS011;31183;47.404;8.500;2023-04-25T03:50:14;8.02;;;4.30;;
45434;SDS011;31183;47.404;8.500;2023-04-25T03:52:41;15.77;;;4.28;;
45434;SDS011;31183;47.404;8.500;2023-04-25T03:55:08;10.80;;;4.45;;
45434;SDS011;31183;47.404;8.500;2023-04-25T03:57:35;13.88;;;5.47;;
45434;SDS011;31183;47.404;8.500;2023-04-25T04:00:02;12.45;;;4.43;;
45434;SDS011;31183;47.404;8.500;2023-04-25T04:02:30;5.20;;;3.65;;
45434;SDS011;31183;47.404;8.500;2023-04-25T04:04:57;9.38;;;4.35;;
45434;SDS011;31183;47.404;8.500;2023-04-25T04:07:24;7.93;;;4.35;;
45434;SDS011;31183;47.404;8.500;2023-04-25T04:09:50;6.05;;;4.03;;
45434;SDS011;31183;47.404;8.500;2023-04-25T04:12:17;9.75;;;5.03;;
45434;SDS011;31183;47.404;8.500;2023-04-25T04:14:44;5.72;;;3.92;;
45434;SDS011;31183;47.404;8.500;2023-04-25T04:17:10;7.65;;;4.05;;
45434;SDS011;31183;47.404;8.500;2023-04-25T04:19:37;5.50;;;4.38;;
45434;SDS011;31183;47.404;8.500;2023-04-25T04:22:03;9.27;;;4.13;;
45434;SDS011;31183;47.404;8.500;2023-04-25T04:24:30;6.75;;;3.65;;
45434;SDS011;31183;47.404;8.500;2023-04-25T04:26:57;9.20;;;3.88;;
45434;SDS011;31183;47.404;8.500;2023-04-25T04:29:23;13.88;;;5.72;;
45434;SDS011;31183;47.404;8.500;2023-04-25T04:31:50;6.88;;;3.88;;
45434;SDS011;31183;47.404;8.500;2023-04-25T04:34:18;6.03;;;4.38;;
45434;SDS011;31183;47.404;8.500;2023-04-25T04:36:45;6.13;;;4.18;;
45434;SDS011;31183;47.404;8.500;2023-04-25T04:39:13;8.18;;;4.85;;
45434;SDS011;31183;47.404;8.500;2023-04-25T04:41:39;6.65;;;3.85;;
45434;SDS011;31183;47.404;8.500;2023-04-25T04:44:06;6.75;;;4.55;;
45434;SDS011;31183;47.404;8.500;2023-04-25T04:46:34;9.60;;;4.90;;
45434;SDS011;31183;47.404;8.500;2023-04-25T04:49:04;10.13;;;4.90;;
45434;SDS011;31183;47.404;8.500;2023-04-25T04:51:31;13.23;;;6.05;;
45434;SDS011;31183;47.404;8.500;2023-04-25T04:53:58;12.68;;;5.10;;
45434;SDS011;31183;47.404;8.500;2023-04-25T04:56:28;8.50;;;4.15;;
45434;SDS011;31183;47.404;8.500;2023-04-25T04:58:57;9.35;;;5.82;;
45434;SDS011;31183;47.404;8.500;2023-04-25T05:01:24;9.55;;;4.75;;
45434;SDS011;31183;47.404;8.500;2023-04-25T05:03:52;10.80;;;4.50;;
45434;SDS011;31183;47.404;8.500;2023-04-25T05:06:19;9.10;;;4.90;;
45434;SDS011;31183;47.404;8.500;2023-04-25T05:08:46;6.78;;;5.05;;
45434;SDS011;31183;47.404;8.500;2023-04-25T05:11:13;9.88;;;5.03;;
45434;SDS011;31183;47.404;8.500;2023-04-25T05:13:40;8.82;;;4.53;;
45434;SDS011;31183;47.404;8.500;2023-04-25T05:16:06;8.30;;;4.45;;
45434;SDS011;31183;47.404;8.500;2023-04-25T05:18:33;10.60;;;5.05;;
45434;SDS011;31183;47.404;8.500;2023-04-25T05:20:59;7.47;;;5.28;;
45434;SDS011;31183;47.404;8.500;2023-04-25T05:23:26;8.75;;;5.13;;
45434;SDS011;31183;47.404;8.500;2023-04-25T05:25:53;10.13;;;5.60;;
45434;SDS011;31183;47.404;8.500;2023-04-25T05:28:20;9.50;;;4.65;;
45434;SDS011;31183;47.404;8.500;2023-04-25T05:30:47;8.02;;;4.70;;
45434;SDS011;31183;47.404;8.500;2023-04-25T05:33:14;8.07;;;4.82;;
45434;SDS011;31183;47.404;8.500;2023-04-25T05:35:41;7.25;;;4.80;;
45434;SDS011;31183;47.404;8.500;2023-04-25T05:38:08;12.63;;;4.57;;
45434;SDS011;31183;47.404;8.500;2023-04-25T05:40:34;12.02;;;5.00;;
45434;SDS011;31183;47.404;8.500;2023-04-25T05:43:01;6.53;;;4.47;;
45434;SDS011;31183;47.404;8.500;2023-04-25T05:45:28;8.13;;;4.50;;
45434;SDS011;31183;47.404;8.500;2023-04-25T05:47:54;6.55;;;4.85;;
45434;SDS011;31183;47.404;8.500;2023-04-25T05:50:21;7.85;;;4.25;;
45434;SDS011;31183;47.404;8.500;2023-04-25T05:52:48;9.70;;;4.32;;
45434;SDS011;31183;47.404;8.500;2023-04-25T05:55:14;8.27;;;3.83;;
45434;SDS011;31183;47.404;8.500;2023-04-25T05:57:41;12.95;;;3.58;;
45434;SDS011;31183;47.404;8.500;2023-04-25T06:00:13;8.25;;;4.05;;
45434;SDS011;31183;47.404;8.500;2023-04-25T06:02:41;5.57;;;3.28;;
45434;SDS011;31183;47.404;8.500;2023-04-25T06:05:08;5.93;;;4.28;;
45434;SDS011;31183;47.404;8.500;2023-04-25T06:07:36;9.88;;;3.97;;
45434;SDS011;31183;47.404;8.500;2023-04-25T06:10:03;4.72;;;3.40;;
45434;SDS011;31183;47.404;8.500;2023-04-25T06:12:32;9.32;;;3.10;;
45434;SDS011;31183;47.404;8.500;2023-04-25T06:14:59;14.88;;;4.03;;
45434;SDS011;31183;47.404;8.500;2023-04-25T06:17:27;7.93;;;3.08;;
45434;SDS011;31183;47.404;8.500;2023-04-25T06:19:54;8.82;;;3.15;;
45434;SDS011;31183;47.404;8.500;2023-04-25T06:22:20;7.68;;;3.80;;
45434;SDS011;31183;47.404;8.500;2023-04-25T06:24:47;9.32;;;4.50;;
45434;SDS011;31183;47.404;8.500;2023-04-25T06:27:14;5.90;;;3.70;;
45434;SDS011;31183;47.404;8.500;2023-04-25T06:29:42;8.90;;;3.95;;
45434;SDS011;31183;47.404;8.500;2023-04-25T06:32:08;10.68;;;4.13;;
45434;SDS011;31183;47.404;8.500;2023-04-25T06:34:35;5.15;;;3.60;;
45434;SDS011;31183;47.404;8.500;2023-04-25T06:37:02;7.85;;;4.03;;
45434;SDS011;31183;47.404;8.500;2023-04-25T06:39:28;6.90;;;3.80;;
45434;SDS011;31183;47.404;8.500;2023-04-25T06:41:55;7.13;;;4.07;;
45434;SDS011;31183;47.404;8.500;2023-04-25T06:44:21;7.63;;;3.53;;
45434;SDS011;31183;47.404;8.500;2023-04-25T06:46:50;6.72;;;4.05;;
45434;SDS011;31183;47.404;8.500;2023-04-25T06:49:16;8.10;;;3.58;;
45434;SDS011;31183;47.404;8.500;2023-04-25T06:51:43;6.65;;;4.50;;
45434;SDS011;31183;47.404;8.500;2023-04-25T06:54:09;10.32;;;3.80;;
45434;SDS011;31183;47.404;8.500;2023-04-25T06:56:36;6.82;;;4.38;;
45434;SDS011;31183;47.404;8.500;2023-04-25T06:59:03;7.88;;;3.83;;
45434;SDS011;31183;47.404;8.500;2023-04-25T07:01:29;7.10;;;4.45;;
45434;SDS011;31183;47.404;8.500;2023-04-25T07:03:56;7.07;;;4.28;;
45434;SDS011;31183;47.404;8.500;2023-04-25T07:06:23;6.22;;;3.60;;
45434;SDS011;31183;47.404;8.500;2023-04-25T07:08:52;7.22;;;4.28;;
45434;SDS011;31183;47.404;8.500;2023-04-25T07:11:18;6.18;;;3.10;;
45434;SDS011;31183;47.404;8.500;2023-04-25T07:13:45;5.75;;;3.30;;
45434;SDS011;31183;47.404;8.500;2023-04-25T07:16:12;4.85;;;3.30;;
45434;SDS011;31183;47.404;8.500;2023-04-25T07:18:39;3.38;;;2.53;;
45434;SDS011;31183;47.404;8.500;2023-04-25T07:21:05;5.53;;;2.58;;
45434;SDS011;31183;47.404;8.500;2023-04-25T07:23:32;4.20;;;2.25;;
45434;SDS011;31183;47.404;8.500;2023-04-25T07:25:58;5.57;;;2.75;;
45434;SDS011;31183;47.404;8.500;2023-04-25T07:28:25;3.53;;;1.90;;
45434;SDS011;31183;47.404;8.500;2023-04-25T07:30:52;2.33;;;2.13;;
45434;SDS011;31183;47.404;8.500;2023-04-25T07:33:18;2.92;;;2.53;;
45434;SDS011;31183;47.404;8.500;2023-04-25T07:35:46;3.38;;;2.50;;
45434;SDS011;31183;47.404;8.500;2023-04-25T07:38:13;3.97;;;2.80;;
45434;SDS011;31183;47.404;8.500;2023-04-25T07:40:39;2.42;;;1.90;;
45434;SDS011;31183;47.404;8.500;2023-04-25T07:43:06;5.55;;;2.20;;
45434;SDS011;31183;47.404;8.500;2023-04-25T07:45:33;3.50;;;2.67;;
45434;SDS011;31183;47.404;8.500;2023-04-25T07:47:59;5.20;;;2.47;;
45434;SDS011;31183;47.404;8.500;2023-04-25T07:50:26;2.80;;;2.33;;
45434;SDS011;31183;47.404;8.500;2023-04-25T07:52:52;4.03;;;2.83;;
45434;SDS011;31183;47.404;8.500;2023-04-25T07:55:19;3.38;;;2.38;;
45434;SDS011;31183;47.404;8.500;2023-04-25T07:57:46;4.65;;;3.03;;
45434;SDS011;31183;47.404;8.500;2023-04-25T08:00:12;5.30;;;3.22;;
45434;SDS011;31183;47.404;8.500;2023-04-25T08:02:40;4.90;;;3.42;;
45434;SDS011;31183;47.404;8.500;2023-04-25T08:05:07;5.22;;;3.17;;
45434;SDS011;31183;47.404;8.500;2023-04-25T08:07:38;7.65;;;3.30;;
45434;SDS011;31183;47.404;8.500;2023-04-25T08:10:05;4.60;;;3.00;;
45434;SDS011;31183;47.404;8.500;2023-04-25T08:12:32;7.68;;;3.35;;
45434;SDS011;31183;47.404;8.500;2023-04-25T08:14:59;4.55;;;3.45;;
45434;SDS011;31183;47.404;8.500;2023-04-25T08:17:26;6.28;;;3.38;;
45434;SDS011;31183;47.404;8.500;2023-04-25T08:19:53;5.53;;;3.03;;
45434;SDS011;31183;47.404;8.500;2023-04-25T08:22:20;8.50;;;3.13;;
45434;SDS011;31183;47.404;8.500;2023-04-25T08:24:46;5.13;;;2.42;;
45434;SDS011;31183;47.404;8.500;2023-04-25T08:27:13;6.68;;;2.33;;
45434;SDS011;31183;47.404;8.500;2023-04-25T08:29:41;4.40;;;2.30;;
45434;SDS011;31183;47.404;8.500;2023-04-25T08:32:07;3.45;;;2.25;;
45434;SDS011;31183;47.404;8.500;2023-04-25T08:34:34;4.38;;;2.20;;
45434;SDS011;31183;47.404;8.500;2023-04-25T08:37:02;2.85;;;2.22;;
45434;SDS011;31183;47.404;8.500;2023-04-25T08:39:30;1.73;;;1.60;;
45434;SDS011;31183;47.404;8.500;2023-04-25T08:41:57;4.53;;;2.05;;
45434;SDS011;31183;47.404;8.500;2023-04-25T08:44:23;3.35;;;1.85;;
45434;SDS011;31183;47.404;8.500;2023-04-25T08:46:51;4.72;;;1.98;;
45434;SDS011;31183;47.404;8.500;2023-04-25T08:49:18;2.10;;;1.90;;
45434;SDS011;31183;47.404;8.500;2023-04-25T08:51:46;2.90;;;2.13;;
45434;SDS011;31183;47.404;8.500;2023-04-25T08:54:13;2.67;;;2.05;;
45434;SDS011;31183;47.404;8.500;2023-04-25T08:57:03;2.88;;;2.00;;
45434;SDS011;31183;47.404;8.500;2023-04-25T08:59:30;3.85;;;2.33;;
45434;SDS011;31183;47.404;8.500;2023-04-25T09:01:58;6.05;;;2.50;;
45434;SDS011;31183;47.404;8.500;2023-04-25T09:04:24;3.85;;;2.22;;
45434;SDS011;31183;47.404;8.500;2023-04-25T09:06:51;3.63;;;2.17;;
45434;SDS011;31183;47.404;8.500;2023-04-25T09:09:18;4.57;;;2.85;;
45434;SDS011;31183;47.404;8.500;2023-04-25T09:11:45;3.47;;;2.42;;
45434;SDS011;31183;47.404;8.500;2023-04-25T09:14:18;2.97;;;2.38;;
45434;SDS011;31183;47.404;8.500;2023-04-25T09:19:31;2.55;;;2.30;;
45434;SDS011;31183;47.404;8.500;2023-04-25T09:22:03;5.95;;;2.20;;
45434;SDS011;31183;47.404;8.500;2023-04-25T09:24:31;2.53;;;2.25;;
45434;SDS011;31183;47.404;8.500;2023-04-25T09:26:58;3.72;;;3.03;;
45434;SDS011;31183;47.404;8.500;2023-04-25T09:29:28;5.25;;;3.20;;
45434;SDS011;31183;47.404;8.500;2023-04-25T09:34:43;3.83;;;2.63;;
45434;SDS011;31183;47.404;8.500;2023-04-25T09:37:16;2.05;;;1.88;;
45434;SDS011;31183;47.404;8.500;2023-04-25T09:39:49;2.55;;;2.35;;
45434;SDS011;31183;47.404;8.500;2023-04-25T09:42:17;2.95;;;2.20;;
45434;SDS011;31183;47.404;8.500;2023-04-25T09:44:44;3.25;;;2.53;;
45434;SDS011;31183;47.404;8.500;2023-04-25T09:47:13;5.05;;;2.05;;
45434;SDS011;31183;47.404;8.500;2023-04-25T09:49:41;3.17;;;1.98;;
45434;SDS011;31183;47.404;8.500;2023-04-25T09:52:09;2.08;;;1.40;;
45434;SDS011;31183;47.404;8.500;2023-04-25T09:54:44;2.05;;;1.40;;
45434;SDS011;31183;47.404;8.500;2023-04-25T09:57:15;1.50;;;1.40;;
45434;SDS011;31183;47.404;8.500;2023-04-25T09:59:44;1.20;;;1.10;;
45434;SDS011;31183;47.404;8.500;2023-04-25T10:02:11;1.98;;;1.27;;
45434;SDS011;31183;47.404;8.500;2023-04-25T10:04:39;2.08;;;1.25;;
45434;SDS011;31183;47.404;8.500;2023-04-25T10:07:07;1.48;;;0.93;;
45434;SDS011;31183;47.404;8.500;2023-04-25T10:09:38;1.02;;;0.90;;
45434;SDS011;31183;47.404;8.500;2023-04-25T10:12:06;1.40;;;1.17;;
45434;SDS011;31183;47.404;8.500;2023-04-25T10:14:34;1.85;;;1.40;;
45434;SDS011;31183;47.404;8.500;2023-04-25T10:17:01;1.48;;;1.17;;
45434;SDS011;31183;47.404;8.500;2023-04-25T10:19:27;2.55;;;1.70;;
45434;SDS011;31183;47.404;8.500;2023-04-25T10:21:58;1.70;;;1.20;;
45434;SDS011;31183;47.404;8.500;2023-04-25T10:24:37;2.20;;;1.20;;
45434;SDS011;31183;47.404;8.500;2023-04-25T10:27:05;2.17;;;0.88;;
45434;SDS011;31183;47.404;8.500;2023-04-25T10:29:33;2.42;;;1.38;;
45434;SDS011;31183;47.404;8.500;2023-04-25T10:32:01;1.30;;;1.05;;
45434;SDS011;31183;47.404;8.500;2023-04-25T10:34:38;1.25;;;1.15;;
45434;SDS011;31183;47.404;8.500;2023-04-25T10:37:09;1.33;;;0.95;;
45434;SDS011;31183;47.404;8.500;2023-04-25T10:39:38;3.45;;;0.90;;
45434;SDS011;31183;47.404;8.500;2023-04-25T10:42:06;1.58;;;1.42;;
45434;SDS011;31183;47.404;8.500;2023-04-25T10:44:34;1.20;;;1.10;;
45434;SDS011;31183;47.404;8.500;2023-04-25T10:47:02;0.73;;;0.73;;
45434;SDS011;31183;47.404;8.500;2023-04-25T10:49:32;2.17;;;1.02;;
45434;SDS011;31183;47.404;8.500;2023-04-25T10:52:13;6.45;;;1.67;;
45434;SDS011;31183;47.404;8.500;2023-04-25T10:54:55;1.17;;;0.98;;
45434;SDS011;31183;47.404;8.500;2023-04-25T10:57:27;1.65;;;1.00;;
45434;SDS011;31183;47.404;8.500;2023-04-25T11:00:18;1.23;;;0.98;;
45434;SDS011;31183;47.404;8.500;2023-04-25T11:03:15;1.63;;;0.90;;
45434;SDS011;31183;47.404;8.500;2023-04-25T11:05:43;2.30;;;1.00;;
45434;SDS011;31183;47.404;8.500;2023-04-25T11:08:31;1.48;;;0.90;;
45434;SDS011;31183;47.404;8.500;2023-04-25T11:11:18;2.70;;;1.00;;
45434;SDS011;31183;47.404;8.500;2023-04-25T11:13:49;1.33;;;0.90;;
45434;SDS011;31183;47.404;8.500;2023-04-25T11:16:16;1.35;;;0.85;;
45434;SDS011;31183;47.404;8.500;2023-04-25T11:18:52;0.82;;;0.82;;
45434;SDS011;31183;47.404;8.500;2023-04-25T11:21:19;1.52;;;1.15;;
45434;SDS011;31183;47.404;8.500;2023-04-25T11:23:46;0.93;;;0.90;;
45434;SDS011;31183;47.404;8.500;2023-04-25T11:26:13;1.95;;;0.95;;
45434;SDS011;31183;47.404;8.500;2023-04-25T11:28:40;1.52;;;0.80;;
45434;SDS011;31183;47.404;8.500;2023-04-25T11:31:11;1.75;;;1.10;;
45434;SDS011;31183;47.404;8.500;2023-04-25T11:33:37;1.90;;;1.02;;
45434;SDS011;31183;47.404;8.500;2023-04-25T11:36:04;1.20;;;0.95;;
45434;SDS011;31183;47.404;8.500;2023-04-25T11:38:31;1.60;;;1.42;;
45434;SDS011;31183;47.404;8.500;2023-04-25T11:40:58;1.98;;;1.15;;
45434;SDS011;31183;47.404;8.500;2023-04-25T11:43:25;3.33;;;1.77;;
45434;SDS011;31183;47.404;8.500;2023-04-25T11:45:51;2.85;;;1.50;;
45434;SDS011;31183;47.404;8.500;2023-04-25T11:48:18;1.52;;;1.33;;
45434;SDS011;31183;47.404;8.500;2023-04-25T11:50:51;1.85;;;1.70;;
45434;SDS011;31183;47.404;8.500;2023-04-25T11:53:19;2.15;;;1.70;;
45434;SDS011;31183;47.404;8.500;2023-04-25T11:55:46;2.03;;;1.67;;
45434;SDS011;31183;47.404;8.500;2023-04-25T11:58:13;2.05;;;1.40;;
45434;SDS011;31183;47.404;8.500;2023-04-25T12:00:41;3.83;;;1.52;;
45434;SDS011;31183;47.404;8.500;2023-04-25T12:03:15;2.30;;;1.13;;
45434;SDS011;31183;47.404;8.500;2023-04-25T12:05:45;2.72;;;1.30;;
45434;SDS011;31183;47.404;8.500;2023-04-25T12:08:13;2.15;;;1.70;;
45434;SDS011;31183;47.404;8.500;2023-04-25T12:10:41;2.55;;;1.52;;
45434;SDS011;31183;47.404;8.500;2023-04-25T12:13:24;1.38;;;1.20;;
45434;SDS011;31183;47.404;8.500;2023-04-25T12:15:55;2.08;;;1.25;;
45434;SDS011;31183;47.404;8.500;2023-04-25T12:18:23;4.82;;;1.40;;
45434;SDS011;31183;47.404;8.500;2023-04-25T12:20:53;3.25;;;1.50;;
45434;SDS011;31183;47.404;8.500;2023-04-25T12:23:26;2.50;;;1.35;;
45434;SDS011;31183;47.404;8.500;2023-04-25T12:25:54;1.42;;;1.20;;
45434;SDS011;31183;47.404;8.500;2023-04-25T12:28:22;3.47;;;1.60;;
45434;SDS011;31183;47.404;8.500;2023-04-25T12:31:00;2.65;;;1.33;;
45434;SDS011;31183;47.404;8.500;2023-04-25T12:33:30;1.67;;;1.42;;
45434;SDS011;31183;47.404;8.500;2023-04-25T12:38:31;2.38;;;1.80;;
45434;SDS011;31183;47.404;8.500;2023-04-25T12:41:04;1.38;;;1.27;;
45434;SDS011;31183;47.404;8.500;2023-04-25T12:43:31;2.10;;;1.38;;
45434;SDS011;31183;47.404;8.500;2023-04-25T12:45:58;3.88;;;1.60;;
45434;SDS011;31183;47.404;8.500;2023-04-25T12:48:24;2.53;;;1.52;;
45434;SDS011;31183;47.404;8.500;2023-04-25T12:50:51;2.60;;;1.20;;
45434;SDS011;31183;47.404;8.500;2023-04-25T12:53:22;2.03;;;1.58;;
45434;SDS011;31183;47.404;8.500;2023-04-25T12:55:52;2.45;;;1.60;;
45434;SDS011;31183;47.404;8.500;2023-04-25T12:58:23;1.85;;;1.65;;
45434;SDS011;31183;47.404;8.500;2023-04-25T13:00:50;3.30;;;2.05;;
45434;SDS011;31183;47.404;8.500;2023-04-25T13:03:17;1.55;;;1.30;;
45434;SDS011;31183;47.404;8.500;2023-04-25T13:05:44;2.97;;;1.50;;
45434;SDS011;31183;47.404;8.500;2023-04-25T13:08:11;2.47;;;1.65;;
45434;SDS011;31183;47.404;8.500;2023-04-25T13:10:38;3.90;;;2.15;;
45434;SDS011;31183;47.404;8.500;2023-04-25T13:13:05;2.08;;;1.60;;
45434;SDS011;31183;47.404;8.500;2023-04-25T13:15:32;5.25;;;1.48;;
45434;SDS011;31183;47.404;8.500;2023-04-25T13:17:58;3.25;;;1.70;;
45434;SDS011;31183;47.404;8.500;2023-04-25T13:20:25;3.00;;;1.50;;
45434;SDS011;31183;47.404;8.500;2023-04-25T13:22:52;4.40;;;1.85;;
45434;SDS011;31183;47.404;8.500;2023-04-25T13:25:18;3.45;;;1.83;;
45434;SDS011;31183;47.404;8.500;2023-04-25T13:27:45;2.35;;;1.50;;
45434;SDS011;31183;47.404;8.500;2023-04-25T13:30:12;3.30;;;1.75;;
45434;SDS011;31183;47.404;8.500;2023-04-25T13:32:39;4.00;;;1.67;;
45434;SDS011;31183;47.404;8.500;2023-04-25T13:35:07;4.00;;;1.63;;
45434;SDS011;31183;47.404;8.500;2023-04-25T13:37:36;2.20;;;1.63;;
45434;SDS011;31183;47.404;8.500;2023-04-25T13:40:05;3.50;;;1.35;;
45434;SDS011;31183;47.404;8.500;2023-04-25T13:42:36;1.63;;;1.40;;
45434;SDS011;31183;47.404;8.500;2023-04-25T13:45:03;1.83;;;1.73;;
45434;SDS011;31183;47.404;8.500;2023-04-25T13:47:30;2.55;;;1.17;;
45434;SDS011;31183;47.404;8.500;2023-04-25T13:49:57;5.10;;;1.60;;
45434;SDS011;31183;47.404;8.500;2023-04-25T13:52:23;2.83;;;1.50;;
45434;SDS011;31183;47.404;8.500;2023-04-25T13:54:50;2.92;;;1.20;;
45434;SDS011;31183;47.404;8.500;2023-04-25T13:57:17;1.35;;;1.25;;
45434;SDS011;31183;47.404;8.500;2023-04-25T13:59:44;2.88;;;1.30;;
45434;SDS011;31183;47.404;8.500;2023-04-25T14:02:12;2.22;;;1.70;;
45434;SDS011;31183;47.404;8.500;2023-04-25T14:04:38;2.70;;;2.30;;
45434;SDS011;31183;47.404;8.500;2023-04-25T14:07:05;3.10;;;1.83;;
45434;SDS011;31183;47.404;8.500;2023-04-25T14:09:32;2.50;;;1.98;;
45434;SDS011;31183;47.404;8.500;2023-04-25T14:11:58;1.92;;;1.60;;
45434;SDS011;31183;47.404;8.500;2023-04-25T14:14:25;2.60;;;1.42;;
45434;SDS011;31183;47.404;8.500;2023-04-25T14:16:52;6.32;;;1.90;;
45434;SDS011;31183;47.404;8.500;2023-04-25T14:19:20;2.70;;;2.50;;
45434;SDS011;31183;47.404;8.500;2023-04-25T14:21:47;3.88;;;3.25;;
45434;SDS011;31183;47.404;8.500;2023-04-25T14:24:14;6.78;;;2.78;;
45434;SDS011;31183;47.404;8.500;2023-04-25T14:26:41;4.30;;;2.88;;
45434;SDS011;31183;47.404;8.500;2023-04-25T14:29:09;4.38;;;1.80;;
45434;SDS011;31183;47.404;8.500;2023-04-25T14:31:38;4.68;;;2.05;;
45434;SDS011;31183;47.404;8.500;2023-04-25T14:34:06;2.67;;;1.90;;
45434;SDS011;31183;47.404;8.500;2023-04-25T14:36:33;2.05;;;1.70;;
45434;SDS011;31183;47.404;8.500;2023-04-25T14:39:01;2.72;;;2.03;;
45434;SDS011;31183;47.404;8.500;2023-04-25T14:41:29;2.90;;;2.17;;
45434;SDS011;31183;47.404;8.500;2023-04-25T14:43:55;2.30;;;1.85;;
45434;SDS011;31183;47.404;8.500;2023-04-25T14:46:22;6.68;;;2.08;;
45434;SDS011;31183;47.404;8.500;2023-04-25T14:48:49;3.83;;;1.80;;
45434;SDS011;31183;47.404;8.500;2023-04-25T14:51:17;1.80;;;1.45;;
45434;SDS011;31183;47.404;8.500;2023-04-25T14:53:44;3.50;;;1.70;;
45434;SDS011;31183;47.404;8.500;2023-04-25T14:56:10;1.70;;;1.50;;
45434;SDS011;31183;47.404;8.500;2023-04-25T14:58:37;1.48;;;1.38;;
45434;SDS011;31183;47.404;8.500;2023-04-25T15:01:04;1.70;;;1.48;;